BFA weather

Boyne Mountain Airport
Boyne Falls, Michigan, United States

Public forecast

Using degrees Fahrenheit for public forecast. Weather courtesy of forecast.io.

Closest aviation weather report (METAR) to Boyne Mountain Airport

Closest report is Gaylord Regional Airport, 13.1 nm (24.2 km) SE. Retrieved 2020/04/05 22:53 UTC (13 minutes ago):

KGLR 052253Z AUTO 30004KT 10SM CLR 10/M08 A3014 RMK AO2 SLP219 T01001078

Closest aviation forecast (TAF) to Boyne Mountain Airport

Closest forecast is Pellston Regional Airport of Emmet County Airport, 24.9 nm (46.1 km) NNE. Retrieved 2020/04/05 18:22 UTC (5 hours ago):

TAF KPLN 051720Z 0518/0618 30008KT P6SM SKC FM060000 VRB03KT P6SM SKC FM060800 00000KT P6SM SCT100 FM061400 28005KT P6SM BKN100